sensor_id;sensor_type;location;lat;lon;timestamp;pressure;altitude;pressure_sealevel;temperature;humidity
74659;BME280;63186;51.204;6.536;2023-06-26T00:02:06;100825.72;;;19.97;77.96
74659;BME280;63186;51.204;6.536;2023-06-26T00:04:32;100816.44;;;19.93;78.02
74659;BME280;63186;51.204;6.536;2023-06-26T00:06:57;100820.00;;;19.90;78.56
74659;BME280;63186;51.204;6.536;2023-06-26T00:09:22;100817.50;;;19.85;78.54
74659;BME280;63186;51.204;6.536;2023-06-26T00:11:48;100825.09;;;19.84;78.44
74659;BME280;63186;51.204;6.536;2023-06-26T00:14:13;100824.19;;;19.80;78.99
74659;BME280;63186;51.204;6.536;2023-06-26T00:16:38;100811.53;;;19.86;78.09
74659;BME280;63186;51.204;6.536;2023-06-26T00:19:03;100822.84;;;19.93;77.64
74659;BME280;63186;51.204;6.536;2023-06-26T00:21:29;100814.56;;;20.00;77.17
74659;BME280;63186;51.204;6.536;2023-06-26T00:23:54;100820.66;;;20.06;76.46
74659;BME280;63186;51.204;6.536;2023-06-26T00:26:19;100819.97;;;20.13;75.85
74659;BME280;63186;51.204;6.536;2023-06-26T00:28:44;100823.53;;;20.10;76.11
74659;BME280;63186;51.204;6.536;2023-06-26T00:31:10;100828.19;;;20.02;76.31
74659;BME280;63186;51.204;6.536;2023-06-26T00:33:35;100820.03;;;19.93;77.26
74659;BME280;63186;51.204;6.536;2023-06-26T00:36:00;100819.41;;;19.81;78.09
74659;BME280;63186;51.204;6.536;2023-06-26T00:38:25;100819.59;;;19.68;78.39
74659;BME280;63186;51.204;6.536;2023-06-26T00:40:51;100824.63;;;19.59;79.38
74659;BME280;63186;51.204;6.536;2023-06-26T00:43:16;100813.72;;;19.54;79.54
74659;BME280;63186;51.204;6.536;2023-06-26T00:45:41;100809.25;;;19.49;80.04
74659;BME280;63186;51.204;6.536;2023-06-26T00:48:07;100814.41;;;19.47;80.03
74659;BME280;63186;51.204;6.536;2023-06-26T00:50:33;100821.16;;;19.46;80.03
74659;BME280;63186;51.204;6.536;2023-06-26T00:52:59;100813.22;;;19.48;79.75
74659;BME280;63186;51.204;6.536;2023-06-26T00:55:26;100819.56;;;19.45;79.84
74659;BME280;63186;51.204;6.536;2023-06-26T00:57:51;100814.25;;;19.40;79.79
74659;BME280;63186;51.204;6.536;2023-06-26T01:00:17;100802.53;;;19.31;80.09
74659;BME280;63186;51.204;6.536;2023-06-26T01:02:43;100814.56;;;19.35;79.87
74659;BME280;63186;51.204;6.536;2023-06-26T01:05:08;100814.56;;;19.35;79.84
74659;BME280;63186;51.204;6.536;2023-06-26T01:07:38;100812.09;;;19.30;80.36
74659;BME280;63186;51.204;6.536;2023-06-26T01:10:05;100820.28;;;19.23;80.50
74659;BME280;63186;51.204;6.536;2023-06-26T01:12:32;100805.91;;;19.21;80.93
74659;BME280;63186;51.204;6.536;2023-06-26T01:14:58;100810.69;;;19.20;80.35
74659;BME280;63186;51.204;6.536;2023-06-26T01:17:23;100804.72;;;19.22;80.19
74659;BME280;63186;51.204;6.536;2023-06-26T01:19:49;100800.47;;;19.28;79.69
74659;BME280;63186;51.204;6.536;2023-06-26T01:28:04;100799.41;;;19.36;78.93
74659;BME280;63186;51.204;6.536;2023-06-26T01:30:31;100792.22;;;19.35;78.97
74659;BME280;63186;51.204;6.536;2023-06-26T01:32:58;100784.19;;;19.30;79.26
74659;BME280;63186;51.204;6.536;2023-06-26T01:35:25;100782.88;;;19.24;79.28
74659;BME280;63186;51.204;6.536;2023-06-26T01:37:51;100804.81;;;19.25;79.33
74659;BME280;63186;51.204;6.536;2023-06-26T01:40:16;100794.16;;;19.31;79.14
74659;BME280;63186;51.204;6.536;2023-06-26T01:42:42;100794.66;;;19.37;78.67
74659;BME280;63186;51.204;6.536;2023-06-26T01:45:13;100795.03;;;19.35;78.54
74659;BME280;63186;51.204;6.536;2023-06-26T01:47:44;100801.06;;;19.37;78.48
74659;BME280;63186;51.204;6.536;2023-06-26T01:50:22;100800.56;;;19.32;78.80
74659;BME280;63186;51.204;6.536;2023-06-26T01:53:03;100801.50;;;19.20;79.51
74659;BME280;63186;51.204;6.536;2023-06-26T01:58:09;100808.03;;;19.08;79.49
74659;BME280;63186;51.204;6.536;2023-06-26T02:00:36;100803.56;;;19.04;79.81
74659;BME280;63186;51.204;6.536;2023-06-26T02:03:01;100809.13;;;19.04;79.53
74659;BME280;63186;51.204;6.536;2023-06-26T02:05:28;100803.13;;;19.02;79.55
74659;BME280;63186;51.204;6.536;2023-06-26T02:07:55;100807.09;;;19.01;79.34
74659;BME280;63186;51.204;6.536;2023-06-26T02:10:21;100799.91;;;19.00;79.52
74659;BME280;63186;51.204;6.536;2023-06-26T02:12:46;100805.06;;;18.97;79.51
74659;BME280;63186;51.204;6.536;2023-06-26T02:15:11;100810.16;;;18.95;79.30
74659;BME280;63186;51.204;6.536;2023-06-26T02:17:36;100819.00;;;18.97;79.63
74659;BME280;63186;51.204;6.536;2023-06-26T02:20:02;100828.09;;;18.94;79.80
74659;BME280;63186;51.204;6.536;2023-06-26T02:22:27;100824.78;;;18.89;80.30
74659;BME280;63186;51.204;6.536;2023-06-26T02:24:53;100822.22;;;18.80;80.77
74659;BME280;63186;51.204;6.536;2023-06-26T02:27:19;100825.66;;;18.74;81.89
74659;BME280;63186;51.204;6.536;2023-06-26T02:29:44;100818.75;;;18.67;82.21
74659;BME280;63186;51.204;6.536;2023-06-26T02:32:09;100826.91;;;18.60;82.78
74659;BME280;63186;51.204;6.536;2023-06-26T02:34:35;100824.69;;;18.50;83.58
74659;BME280;63186;51.204;6.536;2023-06-26T02:37:00;100829.38;;;18.46;83.70
74659;BME280;63186;51.204;6.536;2023-06-26T02:39:26;100829.00;;;18.48;83.30
74659;BME280;63186;51.204;6.536;2023-06-26T02:41:52;100835.13;;;18.53;83.62
74659;BME280;63186;51.204;6.536;2023-06-26T02:44:17;100844.72;;;18.56;82.77
74659;BME280;63186;51.204;6.536;2023-06-26T02:46:43;100843.91;;;18.55;82.63
74659;BME280;63186;51.204;6.536;2023-06-26T02:49:08;100849.50;;;18.55;82.74
74659;BME280;63186;51.204;6.536;2023-06-26T02:51:33;100854.63;;;18.53;82.74
74659;BME280;63186;51.204;6.536;2023-06-26T02:53:59;100859.41;;;18.53;82.90
74659;BME280;63186;51.204;6.536;2023-06-26T02:56:24;100861.66;;;18.47;83.07
74659;BME280;63186;51.204;6.536;2023-06-26T02:58:54;100868.47;;;18.50;82.90
74659;BME280;63186;51.204;6.536;2023-06-26T03:01:19;100873.25;;;18.49;82.99
74659;BME280;63186;51.204;6.536;2023-06-26T03:03:45;100871.00;;;18.55;82.75
74659;BME280;63186;51.204;6.536;2023-06-26T03:06:12;100870.44;;;18.65;82.44
74659;BME280;63186;51.204;6.536;2023-06-26T03:08:39;100870.19;;;18.70;82.40
74659;BME280;63186;51.204;6.536;2023-06-26T03:11:05;100877.72;;;18.85;82.06
74659;BME280;63186;51.204;6.536;2023-06-26T03:13:32;100878.47;;;19.02;81.12
74659;BME280;63186;51.204;6.536;2023-06-26T03:15:57;100885.09;;;19.13;80.63
74659;BME280;63186;51.204;6.536;2023-06-26T03:18:23;100876.78;;;19.16;82.04
74659;BME280;63186;51.204;6.536;2023-06-26T03:20:48;100880.88;;;19.22;80.46
74659;BME280;63186;51.204;6.536;2023-06-26T03:23:13;100888.25;;;19.31;80.56
74659;BME280;63186;51.204;6.536;2023-06-26T03:25:38;100886.31;;;19.35;79.99
74659;BME280;63186;51.204;6.536;2023-06-26T03:28:04;100880.69;;;19.31;80.06
74659;BME280;63186;51.204;6.536;2023-06-26T03:30:29;100888.53;;;19.25;80.34
74659;BME280;63186;51.204;6.536;2023-06-26T03:32:54;100894.13;;;19.25;80.98
74659;BME280;63186;51.204;6.536;2023-06-26T03:35:19;100888.59;;;19.29;80.53
74659;BME280;63186;51.204;6.536;2023-06-26T03:37:45;100897.50;;;19.35;80.17
74659;BME280;63186;51.204;6.536;2023-06-26T03:40:10;100891.25;;;19.41;79.67
74659;BME280;63186;51.204;6.536;2023-06-26T03:42:36;100887.66;;;19.41;79.49
74659;BME280;63186;51.204;6.536;2023-06-26T03:45:01;100896.16;;;19.48;78.73
74659;BME280;63186;51.204;6.536;2023-06-26T03:47:26;100899.41;;;19.50;78.56
74659;BME280;63186;51.204;6.536;2023-06-26T03:49:51;100904.69;;;19.55;78.12
74659;BME280;63186;51.204;6.536;2023-06-26T03:52:17;100900.03;;;19.59;77.87
74659;BME280;63186;51.204;6.536;2023-06-26T03:54:42;100896.94;;;19.64;77.92
74659;BME280;63186;51.204;6.536;2023-06-26T03:57:07;100902.53;;;19.64;77.59
74659;BME280;63186;51.204;6.536;2023-06-26T03:59:33;100914.63;;;19.72;77.76
74659;BME280;63186;51.204;6.536;2023-06-26T04:01:58;100911.59;;;19.81;76.83
74659;BME280;63186;51.204;6.536;2023-06-26T04:04:23;100902.41;;;19.80;77.66
74659;BME280;63186;51.204;6.536;2023-06-26T04:06:49;100915.66;;;19.83;77.11
74659;BME280;63186;51.204;6.536;2023-06-26T04:09:14;100919.66;;;20.05;76.54
74659;BME280;63186;51.204;6.536;2023-06-26T04:11:39;100927.84;;;20.17;75.56
74659;BME280;63186;51.204;6.536;2023-06-26T04:14:04;100916.31;;;20.42;74.53
74659;BME280;63186;51.204;6.536;2023-06-26T04:16:30;100926.47;;;20.76;72.95
74659;BME280;63186;51.204;6.536;2023-06-26T04:18:55;100929.25;;;21.03;71.45
74659;BME280;63186;51.204;6.536;2023-06-26T04:21:21;100923.03;;;21.13;69.38
74659;BME280;63186;51.204;6.536;2023-06-26T04:23:50;100938.41;;;21.26;68.84
74659;BME280;63186;51.204;6.536;2023-06-26T04:26:15;100930.22;;;21.14;69.32
74659;BME280;63186;51.204;6.536;2023-06-26T04:28:41;100933.94;;;21.22;68.97
74659;BME280;63186;51.204;6.536;2023-06-26T04:31:07;100934.44;;;21.01;69.08
74659;BME280;63186;51.204;6.536;2023-06-26T04:33:33;100941.25;;;20.77;69.93
74659;BME280;63186;51.204;6.536;2023-06-26T04:36:01;100933.56;;;20.70;70.33
74659;BME280;63186;51.204;6.536;2023-06-26T04:38:28;100928.19;;;20.84;70.33
74659;BME280;63186;51.204;6.536;2023-06-26T04:40:53;100945.25;;;21.29;68.14
74659;BME280;63186;51.204;6.536;2023-06-26T04:43:18;100934.31;;;21.50;67.94
74659;BME280;63186;51.204;6.536;2023-06-26T04:45:44;100939.09;;;21.20;69.06
74659;BME280;63186;51.204;6.536;2023-06-26T04:48:09;100935.03;;;20.87;69.88
74659;BME280;63186;51.204;6.536;2023-06-26T04:50:34;100940.84;;;20.75;70.27
74659;BME280;63186;51.204;6.536;2023-06-26T04:53:00;100944.56;;;20.59;70.61
74659;BME280;63186;51.204;6.536;2023-06-26T04:55:25;100940.56;;;20.57;70.31
74659;BME280;63186;51.204;6.536;2023-06-26T04:57:51;100951.31;;;20.55;70.35
74659;BME280;63186;51.204;6.536;2023-06-26T05:00:17;100947.03;;;20.61;70.04
74659;BME280;63186;51.204;6.536;2023-06-26T05:02:42;100954.44;;;20.76;69.71
74659;BME280;63186;51.204;6.536;2023-06-26T05:05:08;100967.75;;;21.36;68.04
74659;BME280;63186;51.204;6.536;2023-06-26T05:07:33;100958.47;;;21.62;67.03
74659;BME280;63186;51.204;6.536;2023-06-26T05:09:58;100961.53;;;22.58;64.25
74659;BME280;63186;51.204;6.536;2023-06-26T05:12:24;100965.06;;;22.99;62.40
74659;BME280;63186;51.204;6.536;2023-06-26T05:14:49;100960.50;;;22.36;64.06
74659;BME280;63186;51.204;6.536;2023-06-26T05:17:15;100976.41;;;21.87;66.14
74659;BME280;63186;51.204;6.536;2023-06-26T05:19:40;100977.19;;;21.54;67.37
74659;BME280;63186;51.204;6.536;2023-06-26T05:22:06;100987.41;;;21.39;68.12
74659;BME280;63186;51.204;6.536;2023-06-26T05:24:34;100985.63;;;21.58;67.29
74659;BME280;63186;51.204;6.536;2023-06-26T05:27:00;100990.97;;;21.36;67.94
74659;BME280;63186;51.204;6.536;2023-06-26T05:29:26;100994.50;;;21.07;69.14
74659;BME280;63186;51.204;6.536;2023-06-26T05:31:53;101002.19;;;20.87;70.12
74659;BME280;63186;51.204;6.536;2023-06-26T05:34:22;100993.34;;;20.85;70.47
74659;BME280;63186;51.204;6.536;2023-06-26T05:36:49;100999.91;;;22.09;66.74
74659;BME280;63186;51.204;6.536;2023-06-26T05:39:15;100991.53;;;22.98;63.19
74659;BME280;63186;51.204;6.536;2023-06-26T05:41:41;100992.69;;;22.90;62.89
74659;BME280;63186;51.204;6.536;2023-06-26T05:44:06;100997.69;;;22.26;65.26
74659;BME280;63186;51.204;6.536;2023-06-26T05:46:31;100994.28;;;21.76;66.46
74659;BME280;63186;51.204;6.536;2023-06-26T05:48:57;100989.72;;;21.34;68.19
74659;BME280;63186;51.204;6.536;2023-06-26T05:51:23;100983.53;;;20.95;69.28
74659;BME280;63186;51.204;6.536;2023-06-26T05:53:49;100991.81;;;20.88;69.73
74659;BME280;63186;51.204;6.536;2023-06-26T05:56:15;100994.66;;;20.91;69.43
74659;BME280;63186;51.204;6.536;2023-06-26T05:58:40;101005.03;;;20.91;69.83
74659;BME280;63186;51.204;6.536;2023-06-26T06:01:07;101016.03;;;20.80;70.01
74659;BME280;63186;51.204;6.536;2023-06-26T06:05:57;100995.38;;;20.62;70.60
74659;BME280;63186;51.204;6.536;2023-06-26T06:08:22;101004.56;;;20.62;70.69
74659;BME280;63186;51.204;6.536;2023-06-26T06:10:47;101014.31;;;21.48;68.59
74659;BME280;63186;51.204;6.536;2023-06-26T06:13:13;101018.34;;;22.92;63.75
74659;BME280;63186;51.204;6.536;2023-06-26T06:15:38;101012.47;;;23.70;60.71
74659;BME280;63186;51.204;6.536;2023-06-26T06:18:03;101022.66;;;24.14;59.43
74659;BME280;63186;51.204;6.536;2023-06-26T06:20:29;101023.09;;;24.30;59.05
74659;BME280;63186;51.204;6.536;2023-06-26T06:22:54;101025.09;;;24.22;59.68
74659;BME280;63186;51.204;6.536;2023-06-26T06:25:19;101036.69;;;24.03;59.88
74659;BME280;63186;51.204;6.536;2023-06-26T06:27:44;101033.75;;;23.78;59.65
74659;BME280;63186;51.204;6.536;2023-06-26T06:30:10;101046.72;;;24.04;59.45
74659;BME280;63186;51.204;6.536;2023-06-26T06:32:36;101045.56;;;24.08;58.81
74659;BME280;63186;51.204;6.536;2023-06-26T06:35:01;101046.06;;;24.35;58.07
74659;BME280;63186;51.204;6.536;2023-06-26T06:37:33;101050.56;;;24.86;55.92
74659;BME280;63186;51.204;6.536;2023-06-26T06:39:59;101058.25;;;25.11;55.82
74659;BME280;63186;51.204;6.536;2023-06-26T06:42:24;101056.59;;;25.21;55.06
74659;BME280;63186;51.204;6.536;2023-06-26T06:44:49;101069.63;;;24.06;58.25
74659;BME280;63186;51.204;6.536;2023-06-26T06:47:15;101070.59;;;23.04;61.24
74659;BME280;63186;51.204;6.536;2023-06-26T06:49:40;101073.47;;;22.33;64.13
74659;BME280;63186;51.204;6.536;2023-06-26T06:52:05;101073.72;;;21.90;66.09
74659;BME280;63186;51.204;6.536;2023-06-26T06:54:30;101089.78;;;21.93;66.12
74659;BME280;63186;51.204;6.536;2023-06-26T06:56:56;101088.97;;;22.57;64.72
74659;BME280;63186;51.204;6.536;2023-06-26T06:59:21;101096.19;;;23.43;62.18
74659;BME280;63186;51.204;6.536;2023-06-26T07:01:46;101093.22;;;25.21;56.46
74659;BME280;63186;51.204;6.536;2023-06-26T07:04:12;101094.75;;;25.86;54.48
74659;BME280;63186;51.204;6.536;2023-06-26T07:06:37;101090.84;;;26.57;52.71
74659;BME280;63186;51.204;6.536;2023-06-26T07:09:02;101096.75;;;26.73;52.68
74659;BME280;63186;51.204;6.536;2023-06-26T07:11:28;101100.63;;;26.97;52.09
74659;BME280;63186;51.204;6.536;2023-06-26T07:13:53;101098.88;;;27.21;50.80
74659;BME280;63186;51.204;6.536;2023-06-26T07:16:18;101098.13;;;27.54;49.49
74659;BME280;63186;51.204;6.536;2023-06-26T07:18:43;101100.44;;;27.67;49.16
74659;BME280;63186;51.204;6.536;2023-06-26T07:21:09;101098.56;;;27.91;49.20
74659;BME280;63186;51.204;6.536;2023-06-26T07:23:34;101091.38;;;27.86;49.46
74659;BME280;63186;51.204;6.536;2023-06-26T07:25:59;101096.47;;;27.19;50.93
74659;BME280;63186;51.204;6.536;2023-06-26T07:28:25;101101.19;;;26.77;51.30
74659;BME280;63186;51.204;6.536;2023-06-26T07:30:50;101090.56;;;26.26;53.61
74659;BME280;63186;51.204;6.536;2023-06-26T07:33:15;101107.25;;;26.72;52.70
74659;BME280;63186;51.204;6.536;2023-06-26T07:35:41;101099.63;;;25.60;54.36
74659;BME280;63186;51.204;6.536;2023-06-26T07:38:06;101110.53;;;25.19;56.24
74659;BME280;63186;51.204;6.536;2023-06-26T07:40:31;101109.69;;;24.97;56.49
74659;BME280;63186;51.204;6.536;2023-06-26T07:42:56;101121.00;;;25.43;54.48
74659;BME280;63186;51.204;6.536;2023-06-26T07:45:23;101116.00;;;24.44;57.96
74659;BME280;63186;51.204;6.536;2023-06-26T07:47:48;101122.69;;;24.07;58.94
74659;BME280;63186;51.204;6.536;2023-06-26T07:50:14;101124.13;;;24.71;57.03
74659;BME280;63186;51.204;6.536;2023-06-26T07:52:44;101124.50;;;24.55;57.00
74659;BME280;63186;51.204;6.536;2023-06-26T07:55:09;101128.44;;;24.32;58.02
74659;BME280;63186;51.204;6.536;2023-06-26T07:57:35;101140.13;;;24.42;57.76
74659;BME280;63186;51.204;6.536;2023-06-26T08:00:00;101138.44;;;24.30;58.19
74659;BME280;63186;51.204;6.536;2023-06-26T08:02:25;101147.00;;;23.78;59.70
74659;BME280;63186;51.204;6.536;2023-06-26T08:04:50;101152.03;;;23.51;60.23
74659;BME280;63186;51.204;6.536;2023-06-26T08:07:16;101151.81;;;22.86;61.66
74659;BME280;63186;51.204;6.536;2023-06-26T08:09:41;101152.25;;;22.54;62.18
74659;BME280;63186;51.204;6.536;2023-06-26T08:12:07;101143.44;;;22.52;62.95
74659;BME280;63186;51.204;6.536;2023-06-26T08:14:32;101151.34;;;23.17;61.24
74659;BME280;63186;51.204;6.536;2023-06-26T08:16:57;101152.41;;;23.50;60.06
74659;BME280;63186;51.204;6.536;2023-06-26T08:19:24;101145.16;;;23.01;61.66
74659;BME280;63186;51.204;6.536;2023-06-26T08:21:50;101161.06;;;22.86;62.11
74659;BME280;63186;51.204;6.536;2023-06-26T08:24:16;101164.88;;;22.71;61.91
74659;BME280;63186;51.204;6.536;2023-06-26T08:26:44;101161.13;;;22.90;61.97
74659;BME280;63186;51.204;6.536;2023-06-26T08:29:09;101160.06;;;23.05;61.67
74659;BME280;63186;51.204;6.536;2023-06-26T08:31:35;101169.59;;;22.97;61.26
74659;BME280;63186;51.204;6.536;2023-06-26T08:34:01;101176.84;;;23.42;59.61
74659;BME280;63186;51.204;6.536;2023-06-26T08:36:27;101179.97;;;23.34;59.85
74659;BME280;63186;51.204;6.536;2023-06-26T08:38:52;101172.28;;;23.27;60.53
74659;BME280;63186;51.204;6.536;2023-06-26T08:41:17;101171.84;;;23.21;59.77
74659;BME280;63186;51.204;6.536;2023-06-26T08:43:43;101176.50;;;23.47;58.74
74659;BME280;63186;51.204;6.536;2023-06-26T08:46:08;101173.66;;;24.97;55.83
74659;BME280;63186;51.204;6.536;2023-06-26T08:48:35;101176.53;;;26.91;51.26
74659;BME280;63186;51.204;6.536;2023-06-26T08:51:05;101184.88;;;26.36;51.57
74659;BME280;63186;51.204;6.536;2023-06-26T08:53:49;101188.53;;;24.97;53.42
74659;BME280;63186;51.204;6.536;2023-06-26T08:56:17;101185.84;;;24.24;56.54
74659;BME280;63186;51.204;6.536;2023-06-26T08:58:43;101188.75;;;24.39;56.74
74659;BME280;63186;51.204;6.536;2023-06-26T09:01:09;101196.31;;;25.82;53.32
74659;BME280;63186;51.204;6.536;2023-06-26T09:03:35;101186.22;;;25.38;53.23
74659;BME280;63186;51.204;6.536;2023-06-26T09:06:00;101179.75;;;25.56;54.10
74659;BME280;63186;51.204;6.536;2023-06-26T09:08:25;101177.31;;;26.01;52.76
74659;BME280;63186;51.204;6.536;2023-06-26T09:10:51;101176.47;;;26.18;51.87
74659;BME280;63186;51.204;6.536;2023-06-26T09:13:18;101173.66;;;26.07;50.98
74659;BME280;63186;51.204;6.536;2023-06-26T09:15:44;101183.81;;;25.44;53.98
74659;BME280;63186;51.204;6.536;2023-06-26T09:18:10;101185.72;;;24.79;56.04
74659;BME280;63186;51.204;6.536;2023-06-26T09:20:36;101186.34;;;24.37;56.59
74659;BME280;63186;51.204;6.536;2023-06-26T09:23:01;101178.19;;;24.14;57.78
74659;BME280;63186;51.204;6.536;2023-06-26T09:25:28;101188.63;;;25.11;53.60
74659;BME280;63186;51.204;6.536;2023-06-26T09:27:54;101191.88;;;25.31;53.06
74659;BME280;63186;51.204;6.536;2023-06-26T09:30:20;101188.94;;;26.24;50.12
74659;BME280;63186;51.204;6.536;2023-06-26T09:32:46;101199.44;;;27.15;49.20
74659;BME280;63186;51.204;6.536;2023-06-26T09:35:11;101194.25;;;27.06;49.66
74659;BME280;63186;51.204;6.536;2023-06-26T09:37:37;101200.22;;;26.42;51.50
74659;BME280;63186;51.204;6.536;2023-06-26T09:40:03;101199.09;;;26.04;50.91
74659;BME280;63186;51.204;6.536;2023-06-26T09:42:32;101196.09;;;26.54;49.43
74659;BME280;63186;51.204;6.536;2023-06-26T09:44:58;101198.72;;;25.69;51.34
74659;BME280;63186;51.204;6.536;2023-06-26T09:47:23;101198.72;;;25.84;50.29
74659;BME280;63186;51.204;6.536;2023-06-26T09:49:48;101207.97;;;25.66;50.84
74659;BME280;63186;51.204;6.536;2023-06-26T09:52:15;101201.81;;;24.89;51.68
74659;BME280;63186;51.204;6.536;2023-06-26T09:54:42;101207.75;;;24.63;53.10
74659;BME280;63186;51.204;6.536;2023-06-26T09:57:09;101217.47;;;24.73;53.05
74659;BME280;63186;51.204;6.536;2023-06-26T09:59:35;101217.31;;;24.44;53.84
74659;BME280;63186;51.204;6.536;2023-06-26T10:02:01;101212.13;;;24.50;53.47
74659;BME280;63186;51.204;6.536;2023-06-26T10:04:27;101224.03;;;24.22;52.33
74659;BME280;63186;51.204;6.536;2023-06-26T10:06:56;101220.69;;;24.05;53.89
74659;BME280;63186;51.204;6.536;2023-06-26T10:09:23;101208.66;;;24.88;51.20
74659;BME280;63186;51.204;6.536;2023-06-26T10:12:07;101204.75;;;25.64;49.47
74659;BME280;63186;51.204;6.536;2023-06-26T10:14:41;101207.06;;;24.98;49.18
74659;BME280;63186;51.204;6.536;2023-06-26T10:17:09;101223.84;;;24.59;50.05
74659;BME280;63186;51.204;6.536;2023-06-26T10:19:37;101214.41;;;25.31;49.44
74659;BME280;63186;51.204;6.536;2023-06-26T10:22:03;101219.25;;;25.98;49.06
74659;BME280;63186;51.204;6.536;2023-06-26T10:24:31;101215.06;;;26.53;48.54
74659;BME280;63186;51.204;6.536;2023-06-26T10:27:04;101220.78;;;26.28;46.02
74659;BME280;63186;51.204;6.536;2023-06-26T10:29:30;101225.06;;;26.75;47.07
74659;BME280;63186;51.204;6.536;2023-06-26T10:31:58;101226.22;;;26.89;44.66
74659;BME280;63186;51.204;6.536;2023-06-26T10:34:25;101236.56;;;25.86;45.94
74659;BME280;63186;51.204;6.536;2023-06-26T10:37:00;101236.81;;;24.96;47.58
74659;BME280;63186;51.204;6.536;2023-06-26T10:39:26;101234.97;;;25.50;47.29
74659;BME280;63186;51.204;6.536;2023-06-26T10:41:54;101230.81;;;26.54;45.41
74659;BME280;63186;51.204;6.536;2023-06-26T10:44:20;101233.16;;;26.66;45.12
74659;BME280;63186;51.204;6.536;2023-06-26T10:46:53;101221.66;;;25.68;41.06
74659;BME280;63186;51.204;6.536;2023-06-26T10:49:20;101221.47;;;24.75;46.77
74659;BME280;63186;51.204;6.536;2023-06-26T10:51:49;101235.03;;;24.48;44.65
74659;BME280;63186;51.204;6.536;2023-06-26T10:54:16;101237.41;;;25.83;44.68
74659;BME280;63186;51.204;6.536;2023-06-26T10:59:13;101243.28;;;26.60;40.70
74659;BME280;63186;51.204;6.536;2023-06-26T11:01:43;101246.56;;;26.48;39.19
74659;BME280;63186;51.204;6.536;2023-06-26T11:04:09;101246.56;;;26.48;38.89
74659;BME280;63186;51.204;6.536;2023-06-26T11:06:39;101254.19;;;26.62;39.13
74659;BME280;63186;51.204;6.536;2023-06-26T11:12:09;101249.66;;;26.78;38.63
74659;BME280;63186;51.204;6.536;2023-06-26T11:14:35;101239.44;;;27.02;40.89
74659;BME280;63186;51.204;6.536;2023-06-26T11:17:03;101239.97;;;26.79;40.48
74659;BME280;63186;51.204;6.536;2023-06-26T11:19:28;101246.25;;;26.03;40.98
74659;BME280;63186;51.204;6.536;2023-06-26T11:22:04;101257.09;;;25.62;41.37
74659;BME280;63186;51.204;6.536;2023-06-26T11:24:31;101262.69;;;25.23;44.00
74659;BME280;63186;51.204;6.536;2023-06-26T11:27:00;101264.66;;;25.04;41.62
74659;BME280;63186;51.204;6.536;2023-06-26T11:29:25;101267.81;;;24.96;43.73
74659;BME280;63186;51.204;6.536;2023-06-26T11:31:58;101271.38;;;24.78;44.18
74659;BME280;63186;51.204;6.536;2023-06-26T11:34:24;101277.78;;;24.72;45.41
74659;BME280;63186;51.204;6.536;2023-06-26T11:36:56;101269.16;;;25.30;45.08
74659;BME280;63186;51.204;6.536;2023-06-26T11:39:21;101268.41;;;25.80;42.82
74659;BME280;63186;51.204;6.536;2023-06-26T11:41:47;101247.06;;;25.86;42.28
74659;BME280;63186;51.204;6.536;2023-06-26T11:44:12;101258.28;;;26.14;42.35
74659;BME280;63186;51.204;6.536;2023-06-26T11:46:39;101256.25;;;26.40;42.39
74659;BME280;63186;51.204;6.536;2023-06-26T11:49:05;101265.97;;;26.00;41.03
74659;BME280;63186;51.204;6.536;2023-06-26T11:51:31;101276.81;;;25.55;41.47
74659;BME280;63186;51.204;6.536;2023-06-26T11:53:56;101281.66;;;25.40;41.41
74659;BME280;63186;51.204;6.536;2023-06-26T11:56:22;101286.81;;;25.16;42.60
74659;BME280;63186;51.204;6.536;2023-06-26T12:01:20;101286.84;;;25.27;41.16
74659;BME280;63186;51.204;6.536;2023-06-26T12:03:46;101282.81;;;25.21;41.72
74659;BME280;63186;51.204;6.536;2023-06-26T12:06:12;101284.31;;;25.01;41.57
74659;BME280;63186;51.204;6.536;2023-06-26T12:08:37;101288.66;;;24.77;40.98
74659;BME280;63186;51.204;6.536;2023-06-26T12:11:03;101298.53;;;24.42;40.69
74659;BME280;63186;51.204;6.536;2023-06-26T12:13:29;101309.63;;;24.24;41.78
74659;BME280;63186;51.204;6.536;2023-06-26T12:15:55;101316.22;;;24.39;40.21
74659;BME280;63186;51.204;6.536;2023-06-26T12:18:20;101317.53;;;24.63;40.56
74659;BME280;63186;51.204;6.536;2023-06-26T12:20:49;101314.00;;;24.73;40.97
74659;BME280;63186;51.204;6.536;2023-06-26T12:23:14;101328.56;;;24.97;40.05
74659;BME280;63186;51.204;6.536;2023-06-26T12:25:39;101328.91;;;24.81;39.94
74659;BME280;63186;51.204;6.536;2023-06-26T12:28:15;101336.75;;;24.47;39.45
74659;BME280;63186;51.204;6.536;2023-06-26T12:30:45;101326.78;;;24.63;39.84
74659;BME280;63186;51.204;6.536;2023-06-26T12:33:14;101334.50;;;24.77;39.80
74659;BME280;63186;51.204;6.536;2023-06-26T12:35:40;101342.38;;;24.47;40.37
74659;BME280;63186;51.204;6.536;2023-06-26T12:38:07;101327.19;;;24.58;40.41
74659;BME280;63186;51.204;6.536;2023-06-26T12:40:44;101332.81;;;24.58;39.84
74659;BME280;63186;51.204;6.536;2023-06-26T12:43:11;101318.72;;;24.55;39.57
74659;BME280;63186;51.204;6.536;2023-06-26T12:45:40;101329.25;;;24.69;40.01
74659;BME280;63186;51.204;6.536;2023-06-26T12:48:12;101317.00;;;25.12;37.67
74659;BME280;63186;51.204;6.536;2023-06-26T12:50:44;101316.66;;;25.35;37.50
74659;BME280;63186;51.204;6.536;2023-06-26T12:53:13;101321.84;;;25.12;38.98
74659;BME280;63186;51.204;6.536;2023-06-26T12:55:38;101316.63;;;25.17;37.89
74659;BME280;63186;51.204;6.536;2023-06-26T12:58:04;101312.94;;;25.10;38.60
74659;BME280;63186;51.204;6.536;2023-06-26T13:00:29;101329.75;;;24.88;39.28
74659;BME280;63186;51.204;6.536;2023-06-26T13:02:55;101326.75;;;24.53;38.96
74659;BME280;63186;51.204;6.536;2023-06-26T13:05:21;101330.66;;;24.34;39.50